sensor_id;sensor_type;location;lat;lon;timestamp;pressure;altitude;pressure_sealevel;temperature;humidity
49529;BME280;35423;37.320;-121.762;2023-04-09T00:00:48;100205.73;;;37.26;11.39
49529;BME280;35423;37.320;-121.762;2023-04-09T00:03:15;100203.41;;;36.98;11.61
49529;BME280;35423;37.320;-121.762;2023-04-09T00:05:41;100205.99;;;37.25;11.71
49529;BME280;35423;37.320;-121.762;2023-04-09T00:08:06;100207.30;;;37.08;11.66
49529;BME280;35423;37.320;-121.762;2023-04-09T00:10:32;100205.79;;;36.68;11.75
49529;BME280;35423;37.320;-121.762;2023-04-09T00:13:00;100216.25;;;36.92;11.87
49529;BME280;35423;37.320;-121.762;2023-04-09T00:15:25;100212.87;;;36.41;11.99
49529;BME280;35423;37.320;-121.762;2023-04-09T00:17:51;100214.26;;;36.11;12.11
49529;BME280;35423;37.320;-121.762;2023-04-09T00:20:19;100214.64;;;35.90;12.29
49529;BME280;35423;37.320;-121.762;2023-04-09T00:22:45;100217.50;;;35.75;12.26
49529;BME280;35423;37.320;-121.762;2023-04-09T00:25:11;100218.61;;;35.59;12.23
49529;BME280;35423;37.320;-121.762;2023-04-09T00:27:36;100216.77;;;35.63;12.34
49529;BME280;35423;37.320;-121.762;2023-04-09T00:30:02;100217.06;;;35.45;12.42
49529;BME280;35423;37.320;-121.762;2023-04-09T00:32:30;100220.30;;;35.36;12.43
49529;BME280;35423;37.320;-121.762;2023-04-09T00:34:58;100221.59;;;35.25;12.50
49529;BME280;35423;37.320;-121.762;2023-04-09T00:37:23;100225.98;;;35.33;12.58
49529;BME280;35423;37.320;-121.762;2023-04-09T00:39:54;100225.92;;;35.24;12.53
49529;BME280;35423;37.320;-121.762;2023-04-09T00:42:21;100227.54;;;35.15;12.67
49529;BME280;35423;37.320;-121.762;2023-04-09T00:44:47;100229.81;;;35.03;12.65
49529;BME280;35423;37.320;-121.762;2023-04-09T00:47:11;100228.55;;;34.91;12.53
49529;BME280;35423;37.320;-121.762;2023-04-09T00:49:37;100224.80;;;34.79;12.74
49529;BME280;35423;37.320;-121.762;2023-04-09T00:52:02;100224.21;;;34.70;12.71
49529;BME280;35423;37.320;-121.762;2023-04-09T00:54:30;100228.79;;;34.54;12.75
49529;BME280;35423;37.320;-121.762;2023-04-09T00:56:57;100228.93;;;34.66;12.90
49529;BME280;35423;37.320;-121.762;2023-04-09T00:59:25;100231.17;;;34.41;12.87
49529;BME280;35423;37.320;-121.762;2023-04-09T01:01:51;100236.97;;;34.82;12.81
49529;BME280;35423;37.320;-121.762;2023-04-09T01:04:19;100236.96;;;34.18;12.82
49529;BME280;35423;37.320;-121.762;2023-04-09T01:06:49;100237.95;;;34.07;12.78
49529;BME280;35423;37.320;-121.762;2023-04-09T01:09:20;100239.64;;;34.38;12.77
49529;BME280;35423;37.320;-121.762;2023-04-09T01:11:49;100237.71;;;33.72;12.84
49529;BME280;35423;37.320;-121.762;2023-04-09T01:14:17;100237.47;;;33.81;12.92
49529;BME280;35423;37.320;-121.762;2023-04-09T01:16:36;100234.67;;;33.66;13.02
49529;BME280;35423;37.320;-121.762;2023-04-09T01:19:08;100234.92;;;33.52;13.18
49529;BME280;35423;37.320;-121.762;2023-04-09T01:21:31;100239.62;;;33.60;13.24
49529;BME280;35423;37.320;-121.762;2023-04-09T01:23:58;100238.24;;;33.64;13.22
49529;BME280;35423;37.320;-121.762;2023-04-09T01:26:26;100241.63;;;33.25;13.26
49529;BME280;35423;37.320;-121.762;2023-04-09T01:28:47;100241.29;;;33.35;13.38
49529;BME280;35423;37.320;-121.762;2023-04-09T01:31:13;100240.39;;;33.03;13.52
49529;BME280;35423;37.320;-121.762;2023-04-09T01:33:38;100241.38;;;32.90;13.70
49529;BME280;35423;37.320;-121.762;2023-04-09T01:36:04;100241.55;;;32.81;13.74
49529;BME280;35423;37.320;-121.762;2023-04-09T01:38:34;100242.50;;;32.66;13.89
49529;BME280;35423;37.320;-121.762;2023-04-09T01:40:56;100245.61;;;32.58;14.07
49529;BME280;35423;37.320;-121.762;2023-04-09T01:43:21;100248.28;;;32.67;14.19
49529;BME280;35423;37.320;-121.762;2023-04-09T01:45:48;100248.95;;;32.60;14.31
49529;BME280;35423;37.320;-121.762;2023-04-09T01:48:16;100245.25;;;32.48;14.41
49529;BME280;35423;37.320;-121.762;2023-04-09T01:50:41;100246.82;;;32.57;14.69
49529;BME280;35423;37.320;-121.762;2023-04-09T01:53:07;100247.56;;;32.13;14.81
49529;BME280;35423;37.320;-121.762;2023-04-09T01:55:33;100249.17;;;32.03;14.93
49529;BME280;35423;37.320;-121.762;2023-04-09T01:57:59;100250.77;;;31.88;15.06
49529;BME280;35423;37.320;-121.762;2023-04-09T02:00:31;100252.59;;;31.99;15.20
49529;BME280;35423;37.320;-121.762;2023-04-09T02:02:58;100255.07;;;31.85;15.33
49529;BME280;35423;37.320;-121.762;2023-04-09T02:05:21;100257.05;;;31.67;15.47
49529;BME280;35423;37.320;-121.762;2023-04-09T02:07:53;100261.42;;;31.55;15.53
49529;BME280;35423;37.320;-121.762;2023-04-09T02:10:17;100260.70;;;31.41;15.65
49529;BME280;35423;37.320;-121.762;2023-04-09T02:12:49;100261.27;;;31.69;15.70
49529;BME280;35423;37.320;-121.762;2023-04-09T02:15:13;100261.52;;;31.27;15.66
49529;BME280;35423;37.320;-121.762;2023-04-09T02:17:38;100260.16;;;31.27;15.77
49529;BME280;35423;37.320;-121.762;2023-04-09T02:20:04;100259.84;;;31.04;15.96
49529;BME280;35423;37.320;-121.762;2023-04-09T02:22:29;100259.63;;;30.89;16.05
49529;BME280;35423;37.320;-121.762;2023-04-09T02:24:55;100261.43;;;30.76;16.18
49529;BME280;35423;37.320;-121.762;2023-04-09T02:27:22;100262.18;;;30.63;16.19
49529;BME280;35423;37.320;-121.762;2023-04-09T02:29:47;100263.04;;;30.49;16.35
49529;BME280;35423;37.320;-121.762;2023-04-09T02:32:13;100265.10;;;30.36;16.48
49529;BME280;35423;37.320;-121.762;2023-04-09T02:34:38;100268.06;;;30.24;16.51
49529;BME280;35423;37.320;-121.762;2023-04-09T02:37:05;100267.13;;;30.13;16.56
49529;BME280;35423;37.320;-121.762;2023-04-09T02:39:31;100269.33;;;30.27;16.62
49529;BME280;35423;37.320;-121.762;2023-04-09T02:42:04;100271.52;;;30.15;16.67
49529;BME280;35423;37.320;-121.762;2023-04-09T02:44:31;100272.75;;;30.02;16.65
49529;BME280;35423;37.320;-121.762;2023-04-09T02:46:56;100275.34;;;29.90;16.68
49529;BME280;35423;37.320;-121.762;2023-04-09T02:49:24;100281.48;;;29.75;16.75
49529;BME280;35423;37.320;-121.762;2023-04-09T02:51:50;100286.50;;;29.86;16.82
49529;BME280;35423;37.320;-121.762;2023-04-09T02:54:16;100291.98;;;29.50;16.87
49529;BME280;35423;37.320;-121.762;2023-04-09T02:56:58;100296.37;;;29.34;16.98
49529;BME280;35423;37.320;-121.762;2023-04-09T02:59:19;100301.65;;;29.40;17.13
49529;BME280;35423;37.320;-121.762;2023-04-09T03:01:47;100300.61;;;29.22;17.22
49529;BME280;35423;37.320;-121.762;2023-04-09T03:04:15;100301.67;;;29.07;17.41
49529;BME280;35423;37.320;-121.762;2023-04-09T03:06:40;100302.00;;;29.00;17.50
49529;BME280;35423;37.320;-121.762;2023-04-09T03:09:12;100302.93;;;29.06;17.66
49529;BME280;35423;37.320;-121.762;2023-04-09T03:11:43;100302.60;;;28.70;17.87
49529;BME280;35423;37.320;-121.762;2023-04-09T03:14:14;100304.06;;;28.59;18.04
49529;BME280;35423;37.320;-121.762;2023-04-09T03:16:37;100305.63;;;28.98;18.17
49529;BME280;35423;37.320;-121.762;2023-04-09T03:19:03;100307.63;;;28.62;18.29
49529;BME280;35423;37.320;-121.762;2023-04-09T03:21:28;100311.58;;;28.81;18.39
49529;BME280;35423;37.320;-121.762;2023-04-09T03:23:54;100317.80;;;28.23;18.48
49529;BME280;35423;37.320;-121.762;2023-04-09T03:26:22;100322.67;;;28.35;18.63
49529;BME280;35423;37.320;-121.762;2023-04-09T03:28:53;100328.21;;;28.24;18.78
49529;BME280;35423;37.320;-121.762;2023-04-09T03:31:17;100331.97;;;27.97;18.86
49529;BME280;35423;37.320;-121.762;2023-04-09T03:33:42;100332.25;;;28.36;19.01
49529;BME280;35423;37.320;-121.762;2023-04-09T03:36:08;100335.11;;;28.27;19.02
49529;BME280;35423;37.320;-121.762;2023-04-09T03:38:36;100337.06;;;28.19;19.17
49529;BME280;35423;37.320;-121.762;2023-04-09T03:41:02;100340.34;;;28.12;19.32
49529;BME280;35423;37.320;-121.762;2023-04-09T03:43:30;100343.45;;;28.04;19.38
49529;BME280;35423;37.320;-121.762;2023-04-09T03:45:55;100347.86;;;27.96;19.34
49529;BME280;35423;37.320;-121.762;2023-04-09T03:48:23;100350.82;;;27.82;19.58
49529;BME280;35423;37.320;-121.762;2023-04-09T03:51:05;100352.94;;;27.76;19.61
49529;BME280;35423;37.320;-121.762;2023-04-09T03:53:18;100363.11;;;27.67;19.68
49529;BME280;35423;37.320;-121.762;2023-04-09T03:55:50;100362.15;;;27.54;19.70
49529;BME280;35423;37.320;-121.762;2023-04-09T03:58:17;100365.15;;;27.65;19.68
49529;BME280;35423;37.320;-121.762;2023-04-09T04:00:46;100368.54;;;27.52;19.68
49529;BME280;35423;37.320;-121.762;2023-04-09T04:03:11;100375.63;;;27.26;19.67
49529;BME280;35423;37.320;-121.762;2023-04-09T04:05:39;100380.55;;;27.64;19.77
49529;BME280;35423;37.320;-121.762;2023-04-09T04:08:06;100385.23;;;27.50;19.96
49529;BME280;35423;37.320;-121.762;2023-04-09T04:10:41;100394.11;;;27.35;20.17
49529;BME280;35423;37.320;-121.762;2023-04-09T04:13:06;100400.55;;;27.24;20.27
49529;BME280;35423;37.320;-121.762;2023-04-09T04:15:32;100403.87;;;26.85;20.38
49529;BME280;35423;37.320;-121.762;2023-04-09T04:18:07;100407.36;;;27.01;20.50
49529;BME280;35423;37.320;-121.762;2023-04-09T04:20:41;100410.52;;;26.89;20.61
49529;BME280;35423;37.320;-121.762;2023-04-09T04:23:12;100415.19;;;26.79;20.75
49529;BME280;35423;37.320;-121.762;2023-04-09T04:25:41;100418.30;;;26.69;20.80
49529;BME280;35423;37.320;-121.762;2023-04-09T04:28:08;100423.65;;;26.60;20.95
49529;BME280;35423;37.320;-121.762;2023-04-09T04:30:41;100429.04;;;26.51;21.08
49529;BME280;35423;37.320;-121.762;2023-04-09T04:33:10;100430.29;;;26.41;21.19
49529;BME280;35423;37.320;-121.762;2023-04-09T04:35:42;100435.17;;;26.32;21.28
49529;BME280;35423;37.320;-121.762;2023-04-09T04:38:08;100446.06;;;26.46;21.27
49529;BME280;35423;37.320;-121.762;2023-04-09T04:40:35;100450.91;;;26.13;21.31
49529;BME280;35423;37.320;-121.762;2023-04-09T04:43:10;100452.17;;;26.48;21.35
49529;BME280;35423;37.320;-121.762;2023-04-09T04:45:36;100454.60;;;26.38;21.35
49529;BME280;35423;37.320;-121.762;2023-04-09T04:48:03;100456.09;;;25.86;21.38
49529;BME280;35423;37.320;-121.762;2023-04-09T04:50:37;100462.87;;;26.25;21.36
49529;BME280;35423;37.320;-121.762;2023-04-09T04:53:09;100469.23;;;26.13;21.41
49529;BME280;35423;37.320;-121.762;2023-04-09T04:55:36;100472.22;;;25.79;21.50
49529;BME280;35423;37.320;-121.762;2023-04-09T04:58:01;100476.98;;;25.96;21.51
49529;BME280;35423;37.320;-121.762;2023-04-09T05:00:28;100479.33;;;25.64;21.59
49529;BME280;35423;37.320;-121.762;2023-04-09T05:02:54;100482.47;;;25.76;21.61
49529;BME280;35423;37.320;-121.762;2023-04-09T05:05:23;100487.54;;;25.47;21.62
49529;BME280;35423;37.320;-121.762;2023-04-09T05:07:48;100489.13;;;25.56;21.65
49529;BME280;35423;37.320;-121.762;2023-04-09T05:10:13;100490.19;;;25.71;21.75
49529;BME280;35423;37.320;-121.762;2023-04-09T05:12:39;100494.00;;;25.60;21.88
49529;BME280;35423;37.320;-121.762;2023-04-09T05:15:07;100500.31;;;25.53;21.97
49529;BME280;35423;37.320;-121.762;2023-04-09T05:17:34;100505.47;;;25.15;22.06
49529;BME280;35423;37.320;-121.762;2023-04-09T05:19:59;100507.39;;;25.05;22.09
49529;BME280;35423;37.320;-121.762;2023-04-09T05:22:26;100508.73;;;25.21;22.19
49529;BME280;35423;37.320;-121.762;2023-04-09T05:24:53;100510.32;;;24.84;22.32
49529;BME280;35423;37.320;-121.762;2023-04-09T05:27:23;100512.23;;;25.03;22.40
49529;BME280;35423;37.320;-121.762;2023-04-09T05:29:54;100511.96;;;25.15;22.42
49529;BME280;35423;37.320;-121.762;2023-04-09T05:32:23;100510.15;;;24.84;22.47
49529;BME280;35423;37.320;-121.762;2023-04-09T05:34:47;100507.65;;;24.74;22.50
49529;BME280;35423;37.320;-121.762;2023-04-09T05:37:15;100503.51;;;24.63;22.45
49529;BME280;35423;37.320;-121.762;2023-04-09T05:39:43;100504.19;;;24.54;22.48
49529;BME280;35423;37.320;-121.762;2023-04-09T05:42:19;100501.12;;;24.62;22.59
49529;BME280;35423;37.320;-121.762;2023-04-09T05:44:45;100500.57;;;24.50;22.69
49529;BME280;35423;37.320;-121.762;2023-04-09T05:47:10;100500.83;;;24.41;22.78
49529;BME280;35423;37.320;-121.762;2023-04-09T05:49:38;100502.72;;;24.57;22.91
49529;BME280;35423;37.320;-121.762;2023-04-09T05:52:04;100505.37;;;24.23;22.99
49529;BME280;35423;37.320;-121.762;2023-04-09T05:54:30;100509.08;;;24.17;23.09
49529;BME280;35423;37.320;-121.762;2023-04-09T05:56:55;100510.68;;;24.13;23.18
49529;BME280;35423;37.320;-121.762;2023-04-09T05:59:29;100510.84;;;24.11;23.22
49529;BME280;35423;37.320;-121.762;2023-04-09T06:01:55;100513.55;;;24.07;23.24
49529;BME280;35423;37.320;-121.762;2023-04-09T06:04:20;100512.76;;;24.26;23.27
49529;BME280;35423;37.320;-121.762;2023-04-09T06:06:48;100512.92;;;24.16;23.27
49529;BME280;35423;37.320;-121.762;2023-04-09T06:09:13;100514.39;;;24.09;23.37
49529;BME280;35423;37.320;-121.762;2023-04-09T06:11:38;100515.15;;;24.22;23.47
49529;BME280;35423;37.320;-121.762;2023-04-09T06:14:06;100514.29;;;23.91;23.57
49529;BME280;35423;37.320;-121.762;2023-04-09T06:16:33;100514.59;;;23.82;23.60
49529;BME280;35423;37.320;-121.762;2023-04-09T06:18:57;100513.91;;;23.72;23.61
49529;BME280;35423;37.320;-121.762;2023-04-09T06:21:27;100516.48;;;23.63;23.62
49529;BME280;35423;37.320;-121.762;2023-04-09T06:23:55;100516.07;;;23.27;23.72
49529;BME280;35423;37.320;-121.762;2023-04-09T06:26:24;100515.92;;;23.44;23.80
49529;BME280;35423;37.320;-121.762;2023-04-09T06:28:55;100516.98;;;23.35;23.81
49529;BME280;35423;37.320;-121.762;2023-04-09T06:31:25;100514.95;;;23.47;23.91
49529;BME280;35423;37.320;-121.762;2023-04-09T06:33:54;100513.12;;;23.38;23.98
49529;BME280;35423;37.320;-121.762;2023-04-09T06:36:22;100514.55;;;23.31;24.05
49529;BME280;35423;37.320;-121.762;2023-04-09T06:38:54;100512.41;;;23.26;24.04
49529;BME280;35423;37.320;-121.762;2023-04-09T06:41:25;100512.00;;;23.15;24.08
49529;BME280;35423;37.320;-121.762;2023-04-09T06:43:54;100515.60;;;23.10;24.12
49529;BME280;35423;37.320;-121.762;2023-04-09T06:46:18;100515.07;;;22.99;24.21
49529;BME280;35423;37.320;-121.762;2023-04-09T06:48:45;100515.89;;;22.90;24.23
49529;BME280;35423;37.320;-121.762;2023-04-09T06:51:12;100519.65;;;22.86;24.24
49529;BME280;35423;37.320;-121.762;2023-04-09T06:53:40;100522.58;;;22.78;24.25
49529;BME280;35423;37.320;-121.762;2023-04-09T06:56:07;100522.50;;;22.72;24.24
49529;BME280;35423;37.320;-121.762;2023-04-09T06:58:34;100522.32;;;22.83;24.30
49529;BME280;35423;37.320;-121.762;2023-04-09T07:01:11;100522.31;;;21.57;24.31
49529;BME280;35423;37.320;-121.762;2023-04-09T07:03:41;100523.67;;;23.13;23.95
49529;BME280;35423;37.320;-121.762;2023-04-09T07:06:08;100527.46;;;22.69;24.16
49529;BME280;35423;37.320;-121.762;2023-04-09T07:08:35;100526.73;;;22.70;24.40
49529;BME280;35423;37.320;-121.762;2023-04-09T07:11:09;100525.78;;;22.81;24.54
49529;BME280;35423;37.320;-121.762;2023-04-09T07:13:30;100527.81;;;22.45;24.68
49529;BME280;35423;37.320;-121.762;2023-04-09T07:16:04;100526.13;;;22.38;24.80
49529;BME280;35423;37.320;-121.762;2023-04-09T07:18:32;100521.70;;;22.31;24.84
49529;BME280;35423;37.320;-121.762;2023-04-09T07:21:09;100518.93;;;22.49;24.92
49529;BME280;35423;37.320;-121.762;2023-04-09T07:23:36;100520.46;;;22.16;24.95
49529;BME280;35423;37.320;-121.762;2023-04-09T07:26:02;100519.75;;;22.12;24.95
49529;BME280;35423;37.320;-121.762;2023-04-09T07:28:28;100518.35;;;22.10;24.91
49529;BME280;35423;37.320;-121.762;2023-04-09T07:31:01;100520.38;;;22.30;24.93
49529;BME280;35423;37.320;-121.762;2023-04-09T07:33:19;100525.65;;;22.21;24.99
49529;BME280;35423;37.320;-121.762;2023-04-09T07:35:47;100525.14;;;22.13;25.02
49529;BME280;35423;37.320;-121.762;2023-04-09T07:38:13;100525.72;;;21.77;25.08
49529;BME280;35423;37.320;-121.762;2023-04-09T07:40:39;100526.59;;;21.93;25.13
49529;BME280;35423;37.320;-121.762;2023-04-09T07:43:04;100524.48;;;21.83;25.24
49529;BME280;35423;37.320;-121.762;2023-04-09T07:45:30;100525.54;;;21.74;25.34
49529;BME280;35423;37.320;-121.762;2023-04-09T07:47:57;100525.74;;;21.67;25.36
49529;BME280;35423;37.320;-121.762;2023-04-09T07:50:23;100527.81;;;21.61;25.47
49529;BME280;35423;37.320;-121.762;2023-04-09T07:52:49;100531.31;;;21.56;25.52
49529;BME280;35423;37.320;-121.762;2023-04-09T07:55:15;100532.64;;;21.51;25.55
49529;BME280;35423;37.320;-121.762;2023-04-09T07:57:41;100531.84;;;21.50;25.55
49529;BME280;35423;37.320;-121.762;2023-04-09T08:00:11;100528.82;;;21.39;25.53
49529;BME280;35423;37.320;-121.762;2023-04-09T08:02:46;100528.96;;;21.50;25.50
49529;BME280;35423;37.320;-121.762;2023-04-09T08:05:20;100529.91;;;21.60;25.53
49529;BME280;35423;37.320;-121.762;2023-04-09T08:07:47;100533.93;;;21.54;25.50
49529;BME280;35423;37.320;-121.762;2023-04-09T08:10:12;100533.68;;;21.42;25.62
49529;BME280;35423;37.320;-121.762;2023-04-09T08:12:37;100537.94;;;21.39;25.64
49529;BME280;35423;37.320;-121.762;2023-04-09T08:15:05;100538.62;;;21.34;25.63
49529;BME280;35423;37.320;-121.762;2023-04-09T08:17:30;100541.52;;;21.07;25.81
49529;BME280;35423;37.320;-121.762;2023-04-09T08:19:58;100542.33;;;21.25;25.84
49529;BME280;35423;37.320;-121.762;2023-04-09T08:22:25;100541.49;;;20.95;25.90
49529;BME280;35423;37.320;-121.762;2023-04-09T08:24:51;100542.38;;;21.07;26.00
49529;BME280;35423;37.320;-121.762;2023-04-09T08:27:16;100541.88;;;20.97;26.07
49529;BME280;35423;37.320;-121.762;2023-04-09T08:29:41;100541.06;;;20.88;26.13
49529;BME280;35423;37.320;-121.762;2023-04-09T08:32:07;100539.95;;;20.79;26.20
49529;BME280;35423;37.320;-121.762;2023-04-09T08:34:39;100543.44;;;20.71;26.25
49529;BME280;35423;37.320;-121.762;2023-04-09T08:37:05;100544.70;;;20.67;26.22
49529;BME280;35423;37.320;-121.762;2023-04-09T08:39:35;100544.60;;;20.86;26.29
49529;BME280;35423;37.320;-121.762;2023-04-09T08:42:01;100543.87;;;20.54;26.38
49529;BME280;35423;37.320;-121.762;2023-04-09T08:44:29;100543.64;;;20.75;26.42
49529;BME280;35423;37.320;-121.762;2023-04-09T08:46:56;100543.95;;;20.72;26.43
49529;BME280;35423;37.320;-121.762;2023-04-09T08:49:21;100543.30;;;20.63;26.47
49529;BME280;35423;37.320;-121.762;2023-04-09T08:51:51;100544.47;;;20.76;26.53
49529;BME280;35423;37.320;-121.762;2023-04-09T08:54:20;100545.64;;;20.45;26.62
49529;BME280;35423;37.320;-121.762;2023-04-09T08:56:46;100545.83;;;20.10;26.69
49529;BME280;35423;37.320;-121.762;2023-04-09T08:59:15;100542.63;;;20.30;26.72
49529;BME280;35423;37.320;-121.762;2023-04-09T09:01:40;100543.84;;;20.47;26.88
49529;BME280;35423;37.320;-121.762;2023-04-09T09:04:07;100545.93;;;20.17;26.81
49529;BME280;35423;37.320;-121.762;2023-04-09T09:06:32;100544.28;;;20.34;26.84
49529;BME280;35423;37.320;-121.762;2023-04-09T09:09:02;100540.41;;;20.33;26.85
49529;BME280;35423;37.320;-121.762;2023-04-09T09:11:25;100542.27;;;20.06;26.88
49529;BME280;35423;37.320;-121.762;2023-04-09T09:13:57;100543.59;;;20.20;26.93
49529;BME280;35423;37.320;-121.762;2023-04-09T09:16:20;100542.73;;;20.08;27.01
49529;BME280;35423;37.320;-121.762;2023-04-09T09:18:46;100539.95;;;20.00;27.08
49529;BME280;35423;37.320;-121.762;2023-04-09T09:21:20;100539.80;;;19.96;27.15
49529;BME280;35423;37.320;-121.762;2023-04-09T09:23:45;100539.44;;;19.89;27.23
49529;BME280;35423;37.320;-121.762;2023-04-09T09:26:12;100539.16;;;19.83;27.28
49529;BME280;35423;37.320;-121.762;2023-04-09T09:28:37;100536.87;;;19.82;27.32
49529;BME280;35423;37.320;-121.762;2023-04-09T09:31:08;100534.51;;;19.79;27.39
49529;BME280;35423;37.320;-121.762;2023-04-09T09:33:33;100532.51;;;19.72;27.44
49529;BME280;35423;37.320;-121.762;2023-04-09T09:35:57;100532.22;;;19.70;27.45
49529;BME280;35423;37.320;-121.762;2023-04-09T09:38:24;100531.91;;;19.66;27.52
49529;BME280;35423;37.320;-121.762;2023-04-09T09:40:51;100525.76;;;19.56;27.68
49529;BME280;35423;37.320;-121.762;2023-04-09T09:43:17;100525.81;;;19.47;27.74
49529;BME280;35423;37.320;-121.762;2023-04-09T09:45:46;100523.60;;;19.40;27.75
49529;BME280;35423;37.320;-121.762;2023-04-09T09:48:15;100517.94;;;19.32;27.85
49529;BME280;35423;37.320;-121.762;2023-04-09T09:50:44;100517.38;;;19.28;27.88
49529;BME280;35423;37.320;-121.762;2023-04-09T09:53:11;100513.23;;;19.46;27.98
49529;BME280;35423;37.320;-121.762;2023-04-09T09:55:39;100514.53;;;19.64;28.04
49529;BME280;35423;37.320;-121.762;2023-04-09T09:58:11;100513.96;;;19.11;28.12
49529;BME280;35423;37.320;-121.762;2023-04-09T10:00:34;100510.30;;;19.56;28.17
49529;BME280;35423;37.320;-121.762;2023-04-09T10:03:12;100503.96;;;19.03;28.19
49529;BME280;35423;37.320;-121.762;2023-04-09T10:05:41;100503.74;;;19.31;28.20
49529;BME280;35423;37.320;-121.762;2023-04-09T10:07:59;100505.84;;;19.23;28.26
49529;BME280;35423;37.320;-121.762;2023-04-09T10:10:26;100504.73;;;19.41;28.32
49529;BME280;35423;37.320;-121.762;2023-04-09T10:12:54;100505.76;;;19.36;28.29
49529;BME280;35423;37.320;-121.762;2023-04-09T10:15:22;100502.45;;;19.31;28.35
49529;BME280;35423;37.320;-121.762;2023-04-09T10:17:51;100499.25;;;19.24;28.39
49529;BME280;35423;37.320;-121.762;2023-04-09T10:20:21;100497.80;;;18.71;28.42
49529;BME280;35423;37.320;-121.762;2023-04-09T10:22:46;100498.49;;;19.15;28.48
49529;BME280;35423;37.320;-121.762;2023-04-09T10:25:13;100500.67;;;19.08;28.55
49529;BME280;35423;37.320;-121.762;2023-04-09T10:27:38;100495.66;;;19.05;28.59
49529;BME280;35423;37.320;-121.762;2023-04-09T10:30:06;100495.67;;;18.97;28.64
49529;BME280;35423;37.320;-121.762;2023-04-09T10:32:36;100499.29;;;18.67;28.69
49529;BME280;35423;37.320;-121.762;2023-04-09T10:34:57;100498.00;;;18.81;28.81
49529;BME280;35423;37.320;-121.762;2023-04-09T10:37:24;100496.79;;;18.75;28.89
49529;BME280;35423;37.320;-121.762;2023-04-09T10:39:49;100495.71;;;18.70;28.94
49529;BME280;35423;37.320;-121.762;2023-04-09T10:42:18;100491.68;;;18.64;29.03
49529;BME280;35423;37.320;-121.762;2023-04-09T10:44:45;100492.33;;;18.84;29.10
49529;BME280;35423;37.320;-121.762;2023-04-09T10:49:41;100489.18;;;18.56;29.21
49529;BME280;35423;37.320;-121.762;2023-04-09T10:52:11;100487.81;;;18.32;29.24
49529;BME280;35423;37.320;-121.762;2023-04-09T10:54:39;100487.10;;;18.50;29.28
49529;BME280;35423;37.320;-121.762;2023-04-09T10:57:10;100484.43;;;18.46;29.33
49529;BME280;35423;37.320;-121.762;2023-04-09T10:59:31;100482.08;;;18.44;29.34
49529;BME280;35423;37.320;-121.762;2023-04-09T11:01:57;100483.83;;;18.39;29.40
49529;BME280;35423;37.320;-121.762;2023-04-09T11:04:24;100483.73;;;18.13;29.47
49529;BME280;35423;37.320;-121.762;2023-04-09T11:06:50;100481.13;;;18.83;29.47
49529;BME280;35423;37.320;-121.762;2023-04-09T11:09:17;100481.62;;;18.29;29.51
49529;BME280;35423;37.320;-121.762;2023-04-09T11:11:44;100482.60;;;18.22;29.52
49529;BME280;35423;37.320;-121.762;2023-04-09T11:14:18;100482.96;;;18.18;29.56
49529;BME280;35423;37.320;-121.762;2023-04-09T11:16:41;100488.24;;;18.39;29.60
49529;BME280;35423;37.320;-121.762;2023-04-09T11:19:09;100492.12;;;18.32;29.68
49529;BME280;35423;37.320;-121.762;2023-04-09T11:21:34;100496.83;;;18.06;29.75
49529;BME280;35423;37.320;-121.762;2023-04-09T11:23:59;100498.35;;;18.24;29.82
49529;BME280;35423;37.320;-121.762;2023-04-09T11:26:34;100496.23;;;18.47;29.89
49529;BME280;35423;37.320;-121.762;2023-04-09T11:28:55;100494.18;;;18.16;29.97
49529;BME280;35423;37.320;-121.762;2023-04-09T11:31:27;100497.20;;;17.92;29.99
49529;BME280;35423;37.320;-121.762;2023-04-09T11:33:47;100498.00;;;18.13;30.01
49529;BME280;35423;37.320;-121.762;2023-04-09T11:36:15;100499.04;;;18.37;30.04
49529;BME280;35423;37.320;-121.762;2023-04-09T11:38:42;100503.34;;;18.33;30.09
49529;BME280;35423;37.320;-121.762;2023-04-09T11:41:10;100505.93;;;17.80;30.11
49529;BME280;35423;37.320;-121.762;2023-04-09T11:43:36;100506.90;;;18.22;30.16
49529;BME280;35423;37.320;-121.762;2023-04-09T11:46:05;100504.97;;;18.14;30.18
49529;BME280;35423;37.320;-121.762;2023-04-09T11:48:35;100499.41;;;17.80;30.19
49529;BME280;35423;37.320;-121.762;2023-04-09T11:51:00;100500.48;;;18.01;30.20
49529;BME280;35423;37.320;-121.762;2023-04-09T11:53:30;100500.92;;;17.96;30.27
49529;BME280;35423;37.320;-121.762;2023-04-09T11:55:55;100497.22;;;17.86;30.38
49529;BME280;35423;37.320;-121.762;2023-04-09T11:58:24;100497.79;;;17.54;30.47
49529;BME280;35423;37.320;-121.762;2023-04-09T12:00:55;100497.46;;;17.47;30.58
49529;BME280;35423;37.320;-121.762;2023-04-09T12:03:27;100495.19;;;17.71;30.61
49529;BME280;35423;37.320;-121.762;2023-04-09T12:05:52;100494.22;;;17.68;30.65
49529;BME280;35423;37.320;-121.762;2023-04-09T12:08:21;100493.05;;;17.65;30.70
49529;BME280;35423;37.320;-121.762;2023-04-09T12:10:43;100488.70;;;17.61;30.74
49529;BME280;35423;37.320;-121.762;2023-04-09T12:13:09;100483.39;;;17.58;30.75
49529;BME280;35423;37.320;-121.762;2023-04-09T12:15:37;100487.65;;;17.28;30.78
49529;BME280;35423;37.320;-121.762;2023-04-09T12:18:03;100484.35;;;17.51;30.82
49529;BME280;35423;37.320;-121.762;2023-04-09T12:20:31;100483.42;;;17.48;30.87
49529;BME280;35423;37.320;-121.762;2023-04-09T12:22:55;100480.95;;;17.17;30.90